Terminal Aerodrome Forecast
Issued by NWS Nashville, TN

Current Version | Previous Version | Text Only | Print | Product List | Glossary Off
Versions: 1 2 3 4 5 6 7 8 9 10 11 12 13 14 15 16 17

000
FTUS44 KOHX 280800 AAA
TAFBNA
TAF AMD
KBNA 280857Z 2809/2906 03006KT P6SM OVC035
      TEMPO 2809/2813 OVC025
     FM281500 11006KT P6SM SKC
     FM290000 16004KT P6SM SCT200=

USA.gov is the U.S. government's official web portal to all federal, state and local government web resources and services.